Time;durP1;ratioP1;P1;durP2;ratioP2;P2;SDS_P1;SDS_P2;PMS_P1;PMS_P2;Temp;Humidity;BMP_temperature;BMP_pressure;BME280_temperature;BME280_humidity;BME280_pressure;Samples;Min_cycle;Max_cycle;Signal;HPM_P1;HPM_P2
2021/09/12 00:01:03;;;;;;;1.45;1.30;;;18.00;94.50;;;;;;5135698;27;20088;-73
2021/09/12 00:03:30;;;;;;;1.70;0.90;;;18.00;94.50;;;;;;5117303;27;20051;-73
2021/09/12 00:05:55;;;;;;;1.92;1.50;;;18.10;94.50;;;;;;5135752;27;20076;-73
2021/09/12 00:08:21;;;;;;;1.80;1.20;;;18.10;94.50;;;;;;5135478;27;20020;-73
2021/09/12 00:10:47;;;;;;;2.63;1.45;;;18.10;94.40;;;;;;5135487;27;20047;-73
2021/09/12 00:13:13;;;;;;;2.60;1.58;;;18.00;94.40;;;;;;5135123;27;20047;-73
2021/09/12 00:15:38;;;;;;;2.72;1.50;;;18.00;94.40;;;;;;5135542;27;20460;-73
2021/09/12 00:18:04;;;;;;;3.03;1.73;;;18.00;94.40;;;;;;5135520;27;20015;-73
2021/09/12 00:20:30;;;;;;;2.95;1.50;;;18.00;94.50;;;;;;5157268;22;20538;-86
2021/09/12 00:22:55;;;;;;;7.28;2.50;;;18.00;94.50;;;;;;5115422;28;20032;-83
2021/09/12 00:25:21;;;;;;;2.85;1.55;;;18.00;94.50;;;;;;5130795;27;20393;-82
2021/09/12 00:27:46;;;;;;;2.38;1.35;;;18.00;94.60;;;;;;5130245;27;20472;-83
2021/09/12 00:30:13;;;;;;;4.63;1.92;;;18.00;94.60;;;;;;5113935;28;20026;-85
2021/09/12 00:32:38;;;;;;;2.65;1.60;;;18.00;94.60;;;;;;5114738;28;20027;-85
2021/09/12 00:35:05;;;;;;;4.07;1.70;;;18.00;94.60;;;;;;5114743;28;20383;-83
2021/09/12 00:37:30;;;;;;;4.57;2.10;;;18.00;94.60;;;;;;5096392;28;20107;-83
2021/09/12 00:39:56;;;;;;;4.10;2.50;;;18.00;94.60;;;;;;5114583;28;20451;-84
2021/09/12 00:42:21;;;;;;;5.43;2.25;;;18.00;94.60;;;;;;5114085;28;20447;-82
2021/09/12 00:44:47;;;;;;;3.92;2.40;;;18.00;94.70;;;;;;5114527;28;20028;-83
2021/09/12 00:47:14;;;;;;;3.85;2.22;;;18.00;94.70;;;;;;5114465;28;20055;-83
2021/09/12 00:49:41;;;;;;;3.22;1.70;;;18.00;94.70;;;;;;5114595;28;20051;-82
2021/09/12 00:52:08;;;;;;;3.90;2.50;;;18.00;94.70;;;;;;5096153;28;20461;-83
2021/09/12 00:54:38;;;;;;;3.20;1.90;;;18.00;94.60;;;;;;5096154;28;20068;-84
2021/09/12 00:57:06;;;;;;;3.50;2.20;;;18.00;94.70;;;;;;5095429;28;20020;-82
2021/09/12 00:59:35;;;;;;;3.80;2.05;;;18.00;94.70;;;;;;5114337;28;20084;-84
2021/09/12 01:02:02;;;;;;;3.70;2.30;;;17.90;94.70;;;;;;5114431;28;20023;-84
2021/09/12 01:04:27;;;;;;;3.47;2.10;;;17.90;94.70;;;;;;5096160;28;20087;-84
2021/09/12 01:06:53;;;;;;;7.53;3.30;;;18.00;94.70;;;;;;5130414;27;20027;-85
2021/09/12 01:09:18;;;;;;;4.35;2.33;;;17.90;94.70;;;;;;5129931;27;20114;-83
2021/09/12 01:11:44;;;;;;;4.43;2.58;;;17.90;94.70;;;;;;5129779;27;20030;-85
2021/09/12 01:14:10;;;;;;;4.72;2.55;;;17.90;94.70;;;;;;5130110;27;20114;-83
2021/09/12 01:16:35;;;;;;;5.15;2.45;;;17.90;94.70;;;;;;5114499;28;20016;-86
2021/09/12 01:19:01;;;;;;;3.88;2.33;;;17.80;94.70;;;;;;5130525;27;20030;-84
2021/09/12 01:21:26;;;;;;;4.82;2.20;;;17.90;94.80;;;;;;5129856;27;20553;-85
2021/09/12 01:23:52;;;;;;;4.60;2.70;;;17.90;94.80;;;;;;5096146;28;20040;-85
2021/09/12 01:26:27;;;;;;;3.83;2.17;;;17.80;94.70;;;;;;5113862;28;20106;-87
2021/09/12 01:28:54;;;;;;;3.55;1.90;;;17.80;94.80;;;;;;5096297;28;20084;-86
2021/09/12 01:31:25;;;;;;;3.95;2.40;;;17.80;94.70;;;;;;5096243;28;20020;-85
2021/09/12 01:33:51;;;;;;;4.38;2.72;;;17.80;94.70;;;;;;5114394;28;20130;-85
2021/09/12 01:36:18;;;;;;;4.90;2.30;;;17.80;94.70;;;;;;5130392;28;20020;-85
2021/09/12 01:38:45;;;;;;;3.28;2.10;;;17.70;94.70;;;;;;5096094;28;20024;-86
2021/09/12 01:41:11;;;;;;;4.28;2.88;;;17.70;94.80;;;;;;5098954;28;20024;-85
2021/09/12 01:43:48;;;;;;;4.97;2.70;;;17.70;94.80;;;;;;5119214;28;20016;-87
2021/09/12 01:46:14;;;;;;;5.00;2.40;;;17.70;94.70;;;;;;5100648;28;20019;-87
2021/09/12 01:48:40;;;;;;;5.45;2.80;;;17.60;94.70;;;;;;5118693;28;20028;-85
2021/09/12 01:51:05;;;;;;;5.30;2.55;;;17.60;94.80;;;;;;5134389;27;20429;-86
2021/09/12 01:53:32;;;;;;;5.68;3.03;;;17.60;94.80;;;;;;5133905;27;20024;-87
2021/09/12 01:55:58;;;;;;;2.75;2.13;;;17.60;94.80;;;;;;5100205;28;20032;-85
2021/09/12 01:58:25;;;;;;;3.35;2.10;;;17.60;94.70;;;;;;5133929;27;20368;-84
2021/09/12 02:00:50;;;;;;;3.30;2.28;;;17.60;94.70;;;;;;5099876;28;20019;-86
2021/09/12 02:03:15;;;;;;;3.95;2.55;;;17.50;94.70;;;;;;5118536;28;20056;-86
2021/09/12 02:05:42;;;;;;;4.35;2.30;;;17.50;94.70;;;;;;5118296;28;20101;-87
2021/09/12 02:08:07;;;;;;;3.85;2.20;;;17.50;94.70;;;;;;5139568;27;20019;-83
2021/09/12 02:10:33;;;;;;;4.97;2.22;;;17.40;94.60;;;;;;5121506;28;20102;-83
2021/09/12 02:12:59;;;;;;;3.92;2.40;;;17.40;94.70;;;;;;5135040;27;20020;-82
2021/09/12 02:15:24;;;;;;;3.75;2.45;;;17.30;94.70;;;;;;5119590;28;20016;-84
2021/09/12 02:17:50;;;;;;;3.22;1.95;;;17.20;94.70;;;;;;5117733;28;20490;-84
2021/09/12 02:20:15;;;;;;;3.42;2.03;;;17.20;94.70;;;;;;5133227;27;20503;-83
2021/09/12 02:22:41;;;;;;;4.22;2.22;;;17.20;94.70;;;;;;5133427;27;20020;-85
2021/09/12 02:25:06;;;;;;;3.35;2.10;;;17.20;94.70;;;;;;5117851;28;20027;-84
2021/09/12 02:27:32;;;;;;;3.33;1.95;;;17.10;94.70;;;;;;5117312;28;20046;-84
2021/09/12 02:29:57;;;;;;;3.13;1.90;;;17.10;94.70;;;;;;5133202;27;20400;-84
2021/09/12 02:32:25;;;;;;;2.63;1.85;;;17.00;94.60;;;;;;5099164;28;20395;-87
2021/09/12 02:34:50;;;;;;;3.00;1.83;;;17.00;94.60;;;;;;5117341;28;20027;-84
2021/09/12 02:37:16;;;;;;;4.13;2.47;;;17.00;94.90;;;;;;5117244;28;20024;-83
2021/09/12 02:39:42;;;;;;;3.30;2.17;;;16.90;94.60;;;;;;5117111;28;20026;-85
2021/09/12 02:42:07;;;;;;;3.05;2.08;;;16.90;94.60;;;;;;5133376;27;20027;-84
2021/09/12 02:44:33;;;;;;;2.47;1.83;;;16.80;94.70;;;;;;5117501;28;20051;-84
2021/09/12 02:46:58;;;;;;;3.10;1.90;;;16.80;94.70;;;;;;5117098;28;20035;-84
2021/09/12 02:49:24;;;;;;;1.92;1.48;;;16.80;94.70;;;;;;5098863;28;20020;-83
2021/09/12 02:51:49;;;;;;;3.95;2.20;;;16.70;94.70;;;;;;5131253;27;20119;-85
2021/09/12 02:54:15;;;;;;;3.15;1.83;;;16.70;94.60;;;;;;5132667;27;20075;-84
2021/09/12 02:56:40;;;;;;;2.65;1.85;;;16.70;94.60;;;;;;5117235;28;20028;-84
2021/09/12 02:59:06;;;;;;;1.83;1.33;;;16.70;94.60;;;;;;5098524;28;20164;-84
2021/09/12 03:01:31;;;;;;;2.13;1.48;;;16.70;94.60;;;;;;5132624;27;20016;-85
2021/09/12 03:03:57;;;;;;;2.90;1.45;;;16.60;94.50;;;;;;5132397;27;20500;-84
2021/09/12 03:06:22;;;;;;;2.28;1.40;;;16.60;94.50;;;;;;5116392;28;20027;-83
2021/09/12 03:08:48;;;;;;;2.53;1.80;;;16.60;94.50;;;;;;5098432;28;20376;-85
2021/09/12 03:11:13;;;;;;;3.75;1.67;;;16.50;94.50;;;;;;5132442;27;20122;-83
2021/09/12 03:13:39;;;;;;;2.17;1.70;;;16.50;94.60;;;;;;5116173;28;20022;-82
2021/09/12 03:16:04;;;;;;;3.00;1.70;;;16.40;94.50;;;;;;5116634;28;20491;-83
2021/09/12 03:18:30;;;;;;;4.75;2.38;;;16.40;94.60;;;;;;5132746;27;20027;-83
2021/09/12 03:20:55;;;;;;;4.93;2.78;;;16.40;94.50;;;;;;5116078;28;20055;-86
2021/09/12 03:23:21;;;;;;;4.18;1.88;;;16.30;94.50;;;;;;5132185;27;20011;-84
2021/09/12 03:25:46;;;;;;;2.72;1.75;;;16.10;94.60;;;;;;5116223;28;20030;-86
2021/09/12 03:28:12;;;;;;;3.58;2.08;;;16.10;94.70;;;;;;5132160;27;20022;-85
2021/09/12 03:30:38;;;;;;;4.38;2.42;;;16.10;94.70;;;;;;5116282;28;20040;-84
2021/09/12 03:33:03;;;;;;;4.10;2.35;;;16.00;94.70;;;;;;5098007;28;20070;-84
2021/09/12 03:35:29;;;;;;;3.92;2.45;;;16.00;94.70;;;;;;5131338;27;20070;-84
2021/09/12 03:37:55;;;;;;;4.43;2.40;;;15.90;94.70;;;;;;5115981;28;20027;-85
2021/09/12 03:40:20;;;;;;;4.20;2.40;;;15.90;94.70;;;;;;5115924;28;20031;-82
2021/09/12 03:42:46;;;;;;;2.83;1.98;;;15.90;94.70;;;;;;5131640;27;20477;-83
2021/09/12 03:45:11;;;;;;;4.15;2.17;;;15.80;94.70;;;;;;5115973;28;20093;-84
2021/09/12 03:47:37;;;;;;;3.80;2.25;;;15.80;94.70;;;;;;5097566;28;20076;-84
2021/09/12 03:50:04;;;;;;;3.40;1.77;;;15.80;94.70;;;;;;5115536;28;20107;-83
2021/09/12 03:52:29;;;;;;;4.10;2.38;;;15.80;94.70;;;;;;5097102;28;20028;-83
2021/09/12 03:54:55;;;;;;;2.22;1.77;;;15.80;94.60;;;;;;5115436;28;20040;-83
2021/09/12 03:57:23;;;;;;;4.68;2.63;;;15.70;94.60;;;;;;5115582;28;20400;-84
2021/09/12 03:59:50;;;;;;;3.22;2.30;;;15.70;94.60;;;;;;5115680;28;20047;-83
2021/09/12 04:02:15;;;;;;;3.55;2.22;;;15.70;94.50;;;;;;5115183;28;20073;-83
2021/09/12 04:04:41;;;;;;;4.25;2.20;;;15.60;94.50;;;;;;5096235;28;20024;-83
2021/09/12 04:07:06;;;;;;;3.25;2.40;;;15.60;94.50;;;;;;5115342;28;20019;-84
2021/09/12 04:09:32;;;;;;;3.88;2.45;;;15.60;94.50;;;;;;5097248;28;20032;-84
2021/09/12 04:11:57;;;;;;;3.17;1.92;;;15.60;94.40;;;;;;5115429;28;20031;-83
2021/09/12 04:14:23;;;;;;;4.22;2.20;;;15.50;94.50;;;;;;5097088;28;20418;-84
2021/09/12 04:16:48;;;;;;;4.88;2.53;;;15.50;94.50;;;;;;5131282;27;20476;-84
2021/09/12 04:19:14;;;;;;;3.70;2.55;;;15.40;94.50;;;;;;5119990;28;20072;-83
2021/09/12 04:21:39;;;;;;;4.72;2.30;;;15.40;94.50;;;;;;5116898;28;20590;-83
2021/09/12 04:24:05;;;;;;;4.40;2.60;;;15.40;94.50;;;;;;5131432;27;20384;-84
2021/09/12 04:26:30;;;;;;;3.30;2.30;;;15.30;94.50;;;;;;5097613;28;20031;-83
2021/09/12 04:28:56;;;;;;;6.20;2.92;;;15.30;94.50;;;;;;5130902;27;20460;-82
2021/09/12 04:31:21;;;;;;;4.50;3.15;;;15.30;94.60;;;;;;5114895;28;20039;-83
2021/09/12 04:33:47;;;;;;;4.70;2.53;;;15.30;94.60;;;;;;5130300;27;20118;-83
2021/09/12 04:36:12;;;;;;;5.55;3.20;;;15.20;94.60;;;;;;5114694;28;20034;-83
2021/09/12 04:38:38;;;;;;;4.20;2.83;;;15.20;94.60;;;;;;5130525;27;20024;-84
2021/09/12 04:41:04;;;;;;;5.60;2.95;;;15.20;94.50;;;;;;5130368;27;20069;-82
2021/09/12 04:43:30;;;;;;;3.88;1.98;;;15.20;94.50;;;;;;5096321;28;20016;-83
2021/09/12 04:45:55;;;;;;;4.90;2.42;;;15.20;94.60;;;;;;5114390;28;20495;-82
2021/09/12 04:48:20;;;;;;;2.75;2.05;;;15.10;94.50;;;;;;5095735;28;20016;-83
2021/09/12 04:50:46;;;;;;;4.15;2.40;;;15.10;94.50;;;;;;5130438;27;20027;-83
2021/09/12 04:53:12;;;;;;;3.78;2.40;;;15.10;94.60;;;;;;5130439;27;20384;-84
2021/09/12 04:55:37;;;;;;;5.25;3.00;;;15.10;94.50;;;;;;5096336;28;20388;-86
2021/09/12 04:58:03;;;;;;;4.85;2.55;;;15.00;94.50;;;;;;5096584;28;20020;-83
2021/09/12 05:00:28;;;;;;;5.80;2.80;;;15.00;94.60;;;;;;5096246;28;20027;-83
2021/09/12 05:02:54;;;;;;;5.07;2.95;;;15.00;94.60;;;;;;5129900;27;20016;-84
2021/09/12 05:05:20;;;;;;;4.95;2.65;;;15.00;94.70;;;;;;5114416;28;20023;-84
2021/09/12 05:07:45;;;;;;;3.95;2.60;;;15.00;94.60;;;;;;5130123;27;20400;-78
2021/09/12 05:10:11;;;;;;;6.45;3.88;;;14.90;94.60;;;;;;5113919;28;20039;-80
2021/09/12 05:12:36;;;;;;;4.65;2.80;;;14.90;94.60;;;;;;5113960;28;20388;-80
2021/09/12 05:15:02;;;;;;;5.28;3.20;;;14.90;94.60;;;;;;5129290;27;20028;-82
2021/09/12 05:17:28;;;;;;;5.80;3.17;;;14.90;94.60;;;;;;5129141;27;20019;-80
2021/09/12 05:19:53;;;;;;;5.10;3.65;;;14.90;94.60;;;;;;5095465;28;20469;-79
2021/09/12 05:22:19;;;;;;;6.20;3.53;;;14.90;94.60;;;;;;5113847;28;20046;-81
2021/09/12 05:24:45;;;;;;;5.18;2.83;;;14.90;94.60;;;;;;5095624;28;20030;-80
2021/09/12 05:27:10;;;;;;;4.13;2.65;;;14.80;94.50;;;;;;5129804;27;20046;-81
2021/09/12 05:29:36;;;;;;;6.18;3.58;;;14.80;94.50;;;;;;5129597;27;20027;-81
2021/09/12 05:32:01;;;;;;;4.85;3.13;;;14.80;94.50;;;;;;5113177;28;20016;-81
2021/09/12 05:34:27;;;;;;;5.95;2.90;;;14.80;94.50;;;;;;5129627;28;20028;-80
2021/09/12 05:36:52;;;;;;;4.57;2.65;;;14.80;94.60;;;;;;5095376;28;20080;-81
2021/09/12 05:39:18;;;;;;;5.70;3.13;;;14.80;94.60;;;;;;5114070;28;20098;-84
2021/09/12 05:41:43;;;;;;;5.50;3.20;;;14.80;94.60;;;;;;5113948;28;20106;-83
2021/09/12 05:44:09;;;;;;;5.85;3.40;;;14.80;94.60;;;;;;5113861;28;20016;-83
2021/09/12 05:46:36;;;;;;;5.88;2.92;;;14.80;94.50;;;;;;5129169;28;20032;-82
2021/09/12 05:49:02;;;;;;;6.00;3.63;;;14.80;94.50;;;;;;5095496;28;20509;-82
2021/09/12 05:51:28;;;;;;;5.25;2.85;;;14.80;94.50;;;;;;5111640;28;20036;-82
2021/09/12 05:53:53;;;;;;;4.45;2.40;;;14.80;94.40;;;;;;5103511;28;20016;-83
2021/09/12 05:56:19;;;;;;;7.20;3.25;;;14.90;94.50;;;;;;5102098;28;20038;-84
2021/09/12 05:58:44;;;;;;;6.18;3.70;;;14.90;94.50;;;;;;5106902;28;20027;-83
2021/09/12 06:01:11;;;;;;;5.30;3.40;;;14.90;94.40;;;;;;5126938;28;20030;-80
2021/09/12 06:03:37;;;;;;;8.88;4.43;;;14.80;94.40;;;;;;5131172;28;20031;-83
2021/09/12 06:06:03;;;;;;;6.43;3.50;;;14.80;94.50;;;;;;5111685;28;20027;-82
2021/09/12 06:08:28;;;;;;;7.65;4.25;;;14.80;94.50;;;;;;5130959;28;20459;-83
2021/09/12 06:10:54;;;;;;;6.10;3.53;;;14.80;94.90;;;;;;5117183;28;20484;-85
2021/09/12 06:13:19;;;;;;;5.78;3.55;;;14.70;94.60;;;;;;5088116;28;20028;-87
2021/09/12 06:15:45;;;;;;;6.13;3.95;;;14.70;94.70;;;;;;5095297;28;20101;-85
2021/09/12 06:18:10;;;;;;;6.40;3.53;;;14.70;94.70;;;;;;5075234;28;20469;-83
2021/09/12 06:20:36;;;;;;;6.80;3.80;;;14.70;94.70;;;;;;5075447;28;20051;-85
2021/09/12 06:23:02;;;;;;;5.88;3.20;;;14.80;94.60;;;;;;5075375;28;20016;-84
2021/09/12 06:25:27;;;;;;;7.97;4.70;;;14.70;94.60;;;;;;5079971;28;20028;-84
2021/09/12 06:27:53;;;;;;;5.25;2.97;;;14.80;94.60;;;;;;5078513;28;20024;-83
2021/09/12 06:30:18;;;;;;;6.60;3.65;;;14.80;94.70;;;;;;5100891;27;20122;-82
2021/09/12 06:32:45;;;;;;;5.75;3.10;;;14.80;94.70;;;;;;5136117;27;20076;-81
2021/09/12 06:35:11;;;;;;;7.20;4.60;;;14.90;94.60;;;;;;5133593;27;20074;-84
2021/09/12 06:37:37;;;;;;;6.88;3.80;;;14.90;94.60;;;;;;5116951;27;20051;-84
2021/09/12 06:40:04;;;;;;;6.35;4.10;;;14.90;94.70;;;;;;5117840;27;20023;-83
2021/09/12 06:42:29;;;;;;;5.53;4.05;;;15.00;94.60;;;;;;5096168;28;20076;-84
2021/09/12 06:44:55;;;;;;;6.20;3.83;;;15.00;94.60;;;;;;5128015;27;20118;-82
2021/09/12 06:47:20;;;;;;;6.10;3.63;;;15.10;94.70;;;;;;5130156;27;20031;-84
2021/09/12 06:49:46;;;;;;;5.90;3.25;;;15.10;94.60;;;;;;5095798;28;20605;-85
2021/09/12 06:52:11;;;;;;;6.22;3.47;;;15.20;94.60;;;;;;5119375;27;20496;-83
2021/09/12 06:54:37;;;;;;;6.20;3.55;;;15.30;94.60;;;;;;5090303;28;20024;-80
2021/09/12 06:57:03;;;;;;;5.25;3.10;;;15.30;94.50;;;;;;5101914;28;20393;-82
2021/09/12 06:59:28;;;;;;;6.03;3.05;;;15.40;94.60;;;;;;5109723;28;20027;-82
2021/09/12 07:01:54;;;;;;;5.45;3.00;;;15.40;94.60;;;;;;5097082;28;20094;-82
2021/09/12 07:04:19;;;;;;;5.25;3.10;;;15.40;94.50;;;;;;5110290;28;20081;-82
2021/09/12 07:06:45;;;;;;;5.25;3.22;;;15.50;94.50;;;;;;5116385;28;20429;-82
2021/09/12 07:09:11;;;;;;;6.55;3.28;;;15.50;94.50;;;;;;5097209;28;20096;-80
2021/09/12 07:11:38;;;;;;;6.75;3.60;;;15.50;94.50;;;;;;5114982;28;20075;-79
2021/09/12 07:14:04;;;;;;;5.75;3.10;;;15.50;94.50;;;;;;5115780;28;20059;-80
2021/09/12 07:16:29;;;;;;;4.28;3.20;;;15.60;94.50;;;;;;5097726;28;20026;-77
2021/09/12 07:18:55;;;;;;;4.50;2.63;;;15.60;94.50;;;;;;5116138;28;20102;-80
2021/09/12 07:21:20;;;;;;;5.10;2.72;;;15.60;94.50;;;;;;5115867;28;20039;-82
2021/09/12 07:23:46;;;;;;;5.72;2.80;;;15.70;94.40;;;;;;5115970;28;20537;-81
2021/09/12 07:26:11;;;;;;;4.80;2.42;;;15.70;94.50;;;;;;5115983;28;20031;-81
2021/09/12 07:28:38;;;;;;;6.38;2.83;;;15.70;94.50;;;;;;5115355;28;20119;-80
2021/09/12 07:31:04;;;;;;;5.05;2.90;;;15.70;94.50;;;;;;5097563;28;20065;-79
2021/09/12 07:33:29;;;;;;;4.72;2.30;;;15.80;94.50;;;;;;5115905;28;20111;-81
2021/09/12 07:35:55;;;;;;;4.80;2.15;;;15.80;94.50;;;;;;5131818;27;20031;-78
2021/09/12 07:38:20;;;;;;;5.65;3.00;;;15.90;94.50;;;;;;5115052;28;20035;-79
2021/09/12 07:40:48;;;;;;;4.65;2.47;;;15.90;94.40;;;;;;5097411;28;20031;-79
2021/09/12 07:43:14;;;;;;;6.15;3.10;;;16.00;94.50;;;;;;5096785;28;20035;-77
2021/09/12 07:45:39;;;;;;;5.43;2.95;;;16.00;94.50;;;;;;5115617;28;20042;-77
2021/09/12 07:48:05;;;;;;;4.40;2.80;;;16.10;94.50;;;;;;5097271;28;20110;-77
2021/09/12 07:50:31;;;;;;;4.72;2.72;;;16.20;94.50;;;;;;5115577;28;20035;-79
2021/09/12 07:52:56;;;;;;;4.78;2.72;;;16.10;94.50;;;;;;5115537;28;20093;-79
2021/09/12 07:55:22;;;;;;;4.93;2.33;;;16.20;94.50;;;;;;5115444;28;20030;-79
2021/09/12 07:57:47;;;;;;;6.88;2.95;;;16.30;94.50;;;;;;5114761;28;20046;-77
2021/09/12 08:00:13;;;;;;;9.45;2.97;;;16.30;94.50;;;;;;5115372;28;20081;-79
2021/09/12 08:02:39;;;;;;;5.65;2.85;;;16.40;94.60;;;;;;5115215;28;20027;-79
2021/09/12 08:05:06;;;;;;;4.30;2.53;;;16.40;94.60;;;;;;5115290;28;20034;-75
2021/09/12 08:07:32;;;;;;;4.70;3.05;;;16.50;94.60;;;;;;5115062;28;20015;-78
2021/09/12 08:09:59;;;;;;;5.07;2.78;;;16.60;94.60;;;;;;5114988;28;20042;-78
2021/09/12 08:12:25;;;;;;;5.40;3.50;;;16.70;94.50;;;;;;5114559;28;20068;-84
2021/09/12 08:14:50;;;;;;;5.60;2.90;;;16.80;94.50;;;;;;5115078;28;20020;-79
2021/09/12 08:17:16;;;;;;;6.53;3.17;;;16.80;94.50;;;;;;5114833;28;20024;-81
2021/09/12 08:19:41;;;;;;;4.85;2.78;;;16.80;94.50;;;;;;5114993;28;20011;-81
2021/09/12 08:22:07;;;;;;;5.53;3.10;;;16.90;94.50;;;;;;5114768;28;20494;-79
2021/09/12 08:24:33;;;;;;;6.47;3.45;;;16.90;94.50;;;;;;5114855;28;20024;-80
2021/09/12 08:26:58;;;;;;;6.35;3.15;;;17.00;94.60;;;;;;5129965;27;20028;-80
2021/09/12 08:29:24;;;;;;;5.43;2.90;;;17.10;94.60;;;;;;5114689;28;20073;-80
2021/09/12 08:31:50;;;;;;;5.43;2.70;;;17.20;94.50;;;;;;5114723;28;20494;-79
2021/09/12 08:34:17;;;;;;;4.65;2.47;;;17.30;94.50;;;;;;5114761;28;20019;-80
2021/09/12 08:36:43;;;;;;;4.80;3.05;;;17.40;94.50;;;;;;5114558;28;20020;-81
2021/09/12 08:39:08;;;;;;;4.70;2.60;;;17.50;94.40;;;;;;5114564;28;20110;-75
2021/09/12 08:41:34;;;;;;;6.00;3.28;;;17.60;94.40;;;;;;5114311;28;20051;-80
2021/09/12 08:44:00;;;;;;;4.22;2.63;;;17.70;94.40;;;;;;5115078;28;20016;-78
2021/09/12 08:46:25;;;;;;;5.22;2.80;;;17.80;94.40;;;;;;5096167;28;20051;-79
2021/09/12 08:48:51;;;;;;;6.93;3.15;;;17.90;94.50;;;;;;5114337;28;20019;-78
2021/09/12 08:51:16;;;;;;;5.57;2.90;;;18.00;94.40;;;;;;5113366;28;20110;-79
2021/09/12 08:53:42;;;;;;;5.22;2.63;;;18.20;94.40;;;;;;5114359;28;20509;-77
2021/09/12 08:56:09;;;;;;;5.88;4.00;;;18.30;94.20;;;;;;5113697;28;20039;-79
2021/09/12 08:58:35;;;;;;;6.85;3.92;;;18.40;94.00;;;;;;5114317;28;20028;-78
2021/09/12 09:01:01;;;;;;;6.95;4.45;;;18.30;94.00;;;;;;5114057;28;20155;-77
2021/09/12 09:03:41;;;;;;;5.95;3.30;;;18.30;94.00;;;;;;5114083;28;20023;-79
2021/09/12 09:06:12;;;;;;;5.32;3.10;;;18.30;94.10;;;;;;5114210;28;20465;-83
2021/09/12 09:08:55;;;;;;;6.45;3.88;;;18.30;94.20;;;;;;5095564;28;20499;-85
2021/09/12 09:11:32;;;;;;;6.03;3.70;;;18.30;93.90;;;;;;5114155;28;20028;-84
2021/09/12 09:14:17;;;;;;;7.07;3.88;;;18.20;94.00;;;;;;5114409;28;20472;-81
2021/09/12 09:16:45;;;;;;;6.15;3.63;;;18.20;94.10;;;;;;5114039;28;20016;-84
2021/09/12 09:19:11;;;;;;;5.10;3.05;;;18.30;94.20;;;;;;5096825;28;20103;-83
2021/09/12 09:21:42;;;;;;;6.45;3.97;;;18.40;94.40;;;;;;5115326;28;20036;-88
2021/09/12 09:24:17;;;;;;;5.85;3.83;;;18.60;94.00;;;;;;5114838;28;20055;-88
2021/09/12 09:26:48;;;;;;;5.57;3.10;;;18.60;94.00;;;;;;5115147;28;20019;-89
2021/09/12 09:29:20;;;;;;;5.38;3.45;;;18.80;94.00;;;;;;5115035;28;20034;-87
2021/09/12 09:31:46;;;;;;;5.15;2.92;;;18.80;93.90;;;;;;5114650;28;20101;-86
2021/09/12 09:34:20;;;;;;;4.88;2.90;;;18.80;93.90;;;;;;5115886;28;20027;-87
2021/09/12 09:36:48;;;;;;;4.57;2.60;;;18.90;94.00;;;;;;5115167;28;20528;-87
2021/09/12 09:39:35;;;;;;;4.63;3.28;;;19.10;94.00;;;;;;5114384;28;20031;-84
2021/09/12 09:42:01;;;;;;;6.03;2.65;;;19.20;93.90;;;;;;5100645;28;20043;-85
2021/09/12 09:44:26;;;;;;;6.07;3.60;;;19.20;93.80;;;;;;5115314;28;20345;-88
2021/09/12 09:46:53;;;;;;;5.13;3.17;;;19.30;93.70;;;;;;5114873;28;20031;-85
2021/09/12 09:49:24;;;;;;;5.63;3.33;;;19.30;93.80;;;;;;5114929;28;20433;-84
2021/09/12 09:51:56;;;;;;;5.65;3.25;;;19.30;93.60;;;;;;5114423;28;20035;-84
2021/09/12 09:54:24;;;;;;;4.85;2.88;;;19.30;93.70;;;;;;5114256;28;20023;-83
2021/09/12 09:56:50;;;;;;;4.03;2.40;;;19.30;93.70;;;;;;5096035;28;20019;-84
2021/09/12 09:59:17;;;;;;;5.88;3.00;;;19.40;93.80;;;;;;5095490;28;20447;-85
2021/09/12 10:01:47;;;;;;;6.15;3.63;;;19.40;93.70;;;;;;5115146;28;20027;-85
2021/09/12 10:04:13;;;;;;;;;;;19.50;93.50;;;;;;5100308;28;20361;-83
2021/09/12 10:06:40;;;;;;;4.75;2.38;;;19.50;93.70;;;;;;5117824;28;19937;-85
2021/09/12 10:09:08;;;;;;;3.53;2.45;;;19.60;93.60;;;;;;5118004;28;20107;-85
2021/09/12 10:11:33;;;;;;;4.25;2.58;;;19.60;93.50;;;;;;5117584;28;20036;-85
2021/09/12 10:14:00;;;;;;;3.90;2.75;;;19.70;93.50;;;;;;5117974;28;20395;-83
2021/09/12 10:16:26;;;;;;;3.72;2.10;;;19.70;93.50;;;;;;5099565;28;20046;-83
2021/09/12 10:18:51;;;;;;;3.22;2.08;;;19.80;93.50;;;;;;5119951;28;20019;-83
2021/09/12 10:21:27;;;;;;;4.40;2.28;;;19.80;93.40;;;;;;5121216;28;20441;-84
2021/09/12 10:24:00;;;;;;;3.90;2.50;;;19.90;93.40;;;;;;5117776;28;20031;-84
2021/09/12 10:26:45;;;;;;;3.92;2.30;;;19.90;93.30;;;;;;5117242;28;20031;-84
2021/09/12 10:29:51;;;;;;;3.95;2.80;;;19.80;93.40;;;;;;5117260;28;20104;-85
2021/09/12 10:32:39;;;;;;;4.10;2.42;;;19.80;93.40;;;;;;5114924;28;20035;-83
2021/09/12 10:35:24;;;;;;;3.53;2.20;;;19.80;93.50;;;;;;5098750;28;20020;-83
2021/09/12 10:37:58;;;;;;;4.80;2.97;;;19.70;93.50;;;;;;5117116;28;20054;-83
2021/09/12 10:40:45;;;;;;;4.43;3.00;;;19.70;93.40;;;;;;5116943;28;20411;-82
2021/09/12 10:43:36;;;;;;;7.00;3.70;;;19.60;93.50;;;;;;5116781;28;20034;-81
2021/09/12 10:46:02;;;;;;;6.07;3.75;;;19.50;93.40;;;;;;5098546;28;20047;-81
2021/09/12 10:48:29;;;;;;;4.85;3.25;;;19.40;93.60;;;;;;5117000;28;20512;-82
2021/09/12 10:50:56;;;;;;;5.50;3.42;;;19.40;93.60;;;;;;5116226;28;20035;-83
2021/09/12 10:53:47;;;;;;;5.45;3.33;;;19.50;93.50;;;;;;5116719;28;20485;-82
2021/09/12 10:56:18;;;;;;;4.28;2.72;;;19.50;93.40;;;;;;5098346;28;20035;-81
2021/09/12 10:58:45;;;;;;;5.22;2.67;;;19.50;93.40;;;;;;5116476;28;20380;-84
2021/09/12 11:01:27;;;;;;;5.28;3.35;;;19.50;93.50;;;;;;5116501;28;20529;-83
2021/09/12 11:03:56;;;;;;;4.30;2.70;;;19.50;93.30;;;;;;5116433;28;20499;-84
2021/09/12 11:06:23;;;;;;;5.72;3.30;;;19.50;93.40;;;;;;5116090;28;20031;-81
2021/09/12 11:08:48;;;;;;;3.97;2.70;;;19.40;93.50;;;;;;5116670;28;20027;-83
2021/09/12 11:11:14;;;;;;;5.00;2.85;;;19.50;93.50;;;;;;5116401;28;20077;-83
2021/09/12 11:13:40;;;;;;;4.63;3.38;;;19.60;93.50;;;;;;5115681;28;20069;-83
2021/09/12 11:16:13;;;;;;;4.25;2.70;;;19.80;93.40;;;;;;5116540;28;20024;-84
2021/09/12 11:18:54;;;;;;;5.18;3.38;;;20.00;93.20;;;;;;5116966;28;20027;-82
2021/09/12 11:21:41;;;;;;;6.38;4.22;;;20.10;93.10;;;;;;5116768;28;20108;-85
2021/09/12 11:24:08;;;;;;;7.32;4.22;;;20.30;93.10;;;;;;5098834;28;20055;-85
2021/09/12 11:26:39;;;;;;;6.90;4.03;;;20.40;93.00;;;;;;5116785;28;20089;-86
2021/09/12 11:29:07;;;;;;;6.00;3.50;;;20.40;93.00;;;;;;5117273;28;20028;-85
2021/09/12 11:31:35;;;;;;;5.05;3.00;;;20.40;93.00;;;;;;5116930;28;20038;-87
2021/09/12 11:34:01;;;;;;;5.60;3.20;;;20.30;93.00;;;;;;5116363;28;20552;-86
2021/09/12 11:36:27;;;;;;;5.65;3.40;;;20.20;93.00;;;;;;5116540;28;20051;-85
2021/09/12 11:38:57;;;;;;;6.30;3.03;;;20.00;93.20;;;;;;5116198;28;20476;-84
2021/09/12 11:41:24;;;;;;;6.60;4.10;;;19.90;93.30;;;;;;5116811;28;20062;-88
2021/09/12 11:43:56;;;;;;;5.97;3.90;;;20.00;93.30;;;;;;5116804;28;20068;-86
2021/09/12 11:46:23;;;;;;;6.95;4.22;;;19.90;93.20;;;;;;5120171;28;20027;-85
2021/09/12 11:48:56;;;;;;;6.28;4.63;;;19.90;93.30;;;;;;5100418;28;20026;-90
2021/09/12 11:51:49;;;;;;;5.53;4.25;;;20.00;93.20;;;;;;5117356;28;20400;-92
2021/09/12 11:54:27;;;;;;;5.88;3.63;;;20.00;93.30;;;;;;5114906;28;20510;-93
2021/09/12 11:57:13;;;;;;;6.68;3.95;;;20.00;93.20;;;;;;5098227;28;20028;-86
2021/09/12 11:59:49;;;;;;;6.03;3.92;;;20.10;93.20;;;;;;5115727;28;20050;-85
2021/09/12 12:02:19;;;;;;;5.88;4.22;;;20.00;93.20;;;;;;5115964;28;20095;-84
2021/09/12 12:04:46;;;;;;;4.95;3.70;;;19.90;93.30;;;;;;5115448;28;20020;-85
2021/09/12 12:07:11;;;;;;;5.85;3.85;;;20.00;93.30;;;;;;5115796;28;20027;-86
2021/09/12 12:09:38;;;;;;;5.43;3.47;;;20.00;93.30;;;;;;5131840;27;20013;-87
2021/09/12 12:12:08;;;;;;;7.22;3.60;;;20.00;93.60;;;;;;5115198;28;20032;-84
2021/09/12 12:14:44;;;;;;;7.22;3.83;;;20.10;93.30;;;;;;5097242;28;20399;-84
2021/09/12 12:17:13;;;;;;;6.25;4.35;;;20.20;93.30;;;;;;5114767;28;20019;-84
2021/09/12 12:19:39;;;;;;;6.78;4.45;;;20.20;93.20;;;;;;5115325;28;20012;-84
2021/09/12 12:22:07;;;;;;;6.45;3.72;;;20.30;93.30;;;;;;5115036;28;20126;-82
2021/09/12 12:24:38;;;;;;;5.93;4.30;;;20.30;93.20;;;;;;5114671;28;20049;-83
2021/09/12 12:27:09;;;;;;;6.88;4.50;;;20.30;93.30;;;;;;5114834;28;20031;-82
2021/09/12 12:29:37;;;;;;;6.97;4.50;;;20.40;93.30;;;;;;5114887;28;20084;-81
2021/09/12 12:32:05;;;;;;;5.72;4.40;;;20.70;93.20;;;;;;5114293;28;20027;-82
2021/09/12 12:34:41;;;;;;;7.20;5.20;;;20.90;93.00;;;;;;5114866;28;20069;-82
2021/09/12 12:37:09;;;;;;;7.03;5.07;;;21.10;92.70;;;;;;5114731;28;20020;-83
2021/09/12 12:39:35;;;;;;;6.18;4.35;;;21.00;92.60;;;;;;5114526;28;20098;-83
2021/09/12 12:42:01;;;;;;;5.45;3.95;;;20.90;92.70;;;;;;5114804;28;20103;-82
2021/09/12 12:44:26;;;;;;;5.75;4.30;;;20.80;92.90;;;;;;5114560;28;20072;-83
2021/09/12 12:46:56;;;;;;;6.15;4.30;;;20.80;93.00;;;;;;5114215;28;20024;-84
2021/09/12 12:49:25;;;;;;;7.15;4.97;;;20.80;92.90;;;;;;5114377;28;20020;-83